createdAt,value
2019-04-07T00:01:26.361Z,3.98
2019-04-07T00:03:54.942Z,4.08
2019-04-07T00:06:23.609Z,3.90
2019-04-07T00:08:52.626Z,3.85
2019-04-07T00:11:21.516Z,3.72
2019-04-07T00:13:50.288Z,3.90
2019-04-07T00:16:18.846Z,3.83
2019-04-07T00:18:47.387Z,4.05
2019-04-07T00:21:15.940Z,4.03
2019-04-07T00:23:44.246Z,3.80
2019-04-07T00:26:12.846Z,3.62
2019-04-07T00:28:42.084Z,3.95
2019-04-07T00:31:10.682Z,4.33
2019-04-07T00:33:39.153Z,4.28
2019-04-07T00:36:07.651Z,4.30
2019-04-07T00:38:36.191Z,4.00
2019-04-07T00:41:04.614Z,4.40
2019-04-07T00:43:33.993Z,4.33
2019-04-07T00:46:02.670Z,4.40
2019-04-07T00:48:31.177Z,4.58
2019-04-07T00:50:59.486Z,4.80
2019-04-07T00:53:28.865Z,4.67
2019-04-07T00:55:57.754Z,4.92
2019-04-07T00:58:26.928Z,5.17
2019-04-07T01:00:55.422Z,4.40
2019-04-07T01:03:23.802Z,4.97
2019-04-07T01:05:52.270Z,4.47
2019-04-07T01:08:20.645Z,4.45
2019-04-07T01:10:49.093Z,4.78
2019-04-07T01:13:17.669Z,4.75
2019-04-07T01:15:46.287Z,5.00
2019-04-07T01:18:15.366Z,4.67
2019-04-07T01:20:44.004Z,4.92
2019-04-07T01:23:12.742Z,4.97
2019-04-07T01:25:41.173Z,5.10
2019-04-07T01:28:09.811Z,5.00
2019-04-07T01:30:38.470Z,5.03
2019-04-07T01:33:07.593Z,6.70
2019-04-07T01:35:45.017Z,6.55
2019-04-07T01:38:06.305Z,5.92
2019-04-07T01:40:35.362Z,5.50
2019-04-07T01:43:11.348Z,5.03
2019-04-07T01:45:44.569Z,5.20
2019-04-07T01:48:24.194Z,5.30
2019-04-07T01:50:54.572Z,5.55
2019-04-07T01:53:24.713Z,5.67
2019-04-07T01:56:11.058Z,5.25
2019-04-07T01:58:41.645Z,4.85
2019-04-07T02:01:20.880Z,5.25
2019-04-07T02:04:06.746Z,5.67
2019-04-07T02:06:53.187Z,5.42
2019-04-07T02:09:26.461Z,5.35
2019-04-07T02:12:13.320Z,5.50
2019-04-07T02:14:58.376Z,5.15
2019-04-07T02:17:28.584Z,5.50
2019-04-07T02:20:07.881Z,5.60
2019-04-07T02:22:50.818Z,4.92
2019-04-07T02:25:36.162Z,5.20
2019-04-07T02:30:42.410Z,4.90
2019-04-07T02:33:24.505Z,5.37
2019-04-07T02:35:54.704Z,5.40
2019-04-07T02:38:41.000Z,4.90
2019-04-07T02:41:27.594Z,5.28
2019-04-07T02:44:01.508Z,5.10
2019-04-07T02:46:35.104Z,5.30
2019-04-07T02:49:05.935Z,5.05
2019-04-07T02:51:38.659Z,4.72
2019-04-07T02:54:15.473Z,5.10
2019-04-07T02:56:46.153Z,5.00
2019-04-07T02:59:25.591Z,5.30
2019-04-07T03:02:12.111Z,5.15
2019-04-07T03:05:00.061Z,5.12
2019-04-07T03:07:32.843Z,5.10
2019-04-07T03:10:05.837Z,5.50
2019-04-07T03:12:35.857Z,4.85
2019-04-07T03:15:07.040Z,4.95
2019-04-07T03:17:37.590Z,5.03
2019-04-07T03:20:08.712Z,4.95
2019-04-07T03:22:44.436Z,5.35
2019-04-07T03:25:15.609Z,5.10
2019-04-07T03:27:48.738Z,5.40
2019-04-07T03:30:24.308Z,5.72
2019-04-07T03:33:12.785Z,5.08
2019-04-07T03:35:46.180Z,5.17
2019-04-07T03:38:31.491Z,5.17
2019-04-07T03:41:11.804Z,4.83
2019-04-07T03:43:42.728Z,4.97
2019-04-07T03:46:14.219Z,5.30
2019-04-07T03:48:47.925Z,4.97
2019-04-07T03:51:18.985Z,5.33
2019-04-07T03:54:04.339Z,5.20
2019-04-07T03:59:10.859Z,5.35
2019-04-07T04:01:57.570Z,5.00
2019-04-07T04:04:28.547Z,5.62
2019-04-07T04:07:16.419Z,5.00
2019-04-07T04:09:33.101Z,4.70
2019-04-07T04:12:19.509Z,5.42
2019-04-07T04:15:06.811Z,4.92
2019-04-07T04:17:35.326Z,5.08
2019-04-07T04:20:06.559Z,5.28
2019-04-07T04:22:35.968Z,5.00
2019-04-07T04:25:05.915Z,5.05
2019-04-07T04:27:35.153Z,5.22
2019-04-07T04:30:05.525Z,4.92
2019-04-07T04:32:34.010Z,4.70
2019-04-07T04:35:03.164Z,4.85
2019-04-07T04:37:40.341Z,4.87
2019-04-07T04:40:02.033Z,4.97
2019-04-07T04:42:31.184Z,5.00
2019-04-07T04:45:02.228Z,5.03
2019-04-07T04:47:31.132Z,5.28
2019-04-07T04:49:59.940Z,5.05
2019-04-07T04:52:28.342Z,5.62
2019-04-07T04:54:57.136Z,5.08
2019-04-07T04:57:25.661Z,5.37
2019-04-07T04:59:54.149Z,5.37
2019-04-07T05:02:23.574Z,5.58
2019-04-07T05:04:52.770Z,5.25
2019-04-07T05:07:22.205Z,5.53
2019-04-07T05:09:54.167Z,5.53
2019-04-07T05:12:21.989Z,6.00
2019-04-07T05:14:50.477Z,5.72
2019-04-07T05:17:19.084Z,5.53
2019-04-07T05:19:47.606Z,6.00
2019-04-07T05:22:16.656Z,5.37
2019-04-07T05:24:45.550Z,5.30
2019-04-07T05:27:13.978Z,5.25
2019-04-07T05:29:42.396Z,6.10
2019-04-07T05:32:11.087Z,5.62
2019-04-07T05:34:40.269Z,6.15
2019-04-07T05:37:08.895Z,5.60
2019-04-07T05:39:37.375Z,5.92
2019-04-07T05:42:05.866Z,5.90
2019-04-07T05:44:34.451Z,6.35
2019-04-07T05:47:03.062Z,5.95
2019-04-07T05:49:31.608Z,6.67
2019-04-07T05:52:04.042Z,6.28
2019-04-07T05:54:30.381Z,6.60
2019-04-07T05:57:01.342Z,6.33
2019-04-07T05:59:29.619Z,6.67
2019-04-07T06:02:01.578Z,6.30
2019-04-07T06:04:29.149Z,6.42
2019-04-07T06:06:58.115Z,6.35
2019-04-07T06:09:26.540Z,6.53
2019-04-07T06:11:55.018Z,7.05
2019-04-07T06:14:24.280Z,7.30
2019-04-07T06:16:55.343Z,7.53
2019-04-07T06:19:23.693Z,6.87
2019-04-07T06:21:52.678Z,7.15
2019-04-07T06:24:22.433Z,7.08
2019-04-07T06:26:51.013Z,7.12
2019-04-07T06:29:19.990Z,7.03
2019-04-07T06:31:48.489Z,6.97
2019-04-07T06:34:17.201Z,6.92
2019-04-07T06:36:46.309Z,6.83
2019-04-07T06:39:17.181Z,7.12
2019-04-07T06:41:45.667Z,7.28
2019-04-07T06:44:19.409Z,6.65
2019-04-07T06:47:01.163Z,6.95
2019-04-07T06:49:47.181Z,7.72
2019-04-07T06:52:18.290Z,8.20
2019-04-07T06:54:50.153Z,7.58
2019-04-07T06:57:37.441Z,7.47
2019-04-07T07:00:14.236Z,7.70
2019-04-07T07:02:45.456Z,7.53
2019-04-07T07:05:27.905Z,7.62
2019-04-07T07:08:00.878Z,7.67
2019-04-07T07:10:46.770Z,7.87
2019-04-07T07:13:28.417Z,7.90
2019-04-07T07:15:58.424Z,7.75
2019-04-07T07:18:32.237Z,8.38
2019-04-07T07:21:12.032Z,7.53
2019-04-07T07:23:47.642Z,8.15
2019-04-07T07:26:12.414Z,7.47
2019-04-07T07:28:42.873Z,6.95
2019-04-07T07:31:11.185Z,7.03
2019-04-07T07:33:41.792Z,7.70
2019-04-07T07:36:09.876Z,7.20
2019-04-07T07:38:38.501Z,7.25
2019-04-07T07:41:06.856Z,7.45
2019-04-07T07:43:35.200Z,6.65
2019-04-07T07:46:03.761Z,6.85
2019-04-07T07:48:32.322Z,7.37
2019-04-07T07:51:01.203Z,7.33
2019-04-07T07:53:29.830Z,7.33
2019-04-07T07:55:58.266Z,7.53
2019-04-07T07:58:30.206Z,7.15
2019-04-07T08:01:00.091Z,6.97
2019-04-07T08:03:27.297Z,7.42
2019-04-07T08:05:56.528Z,7.47
2019-04-07T08:08:25.353Z,7.35
2019-04-07T08:10:59.093Z,7.15
2019-04-07T08:13:24.797Z,7.25
2019-04-07T08:15:54.622Z,7.15
2019-04-07T08:18:23.769Z,7.75
2019-04-07T08:20:52.261Z,7.37
2019-04-07T08:23:21.069Z,6.72
2019-04-07T08:25:52.872Z,7.47
2019-04-07T08:28:20.673Z,7.60
2019-04-07T08:30:50.295Z,6.90
2019-04-07T08:33:18.978Z,7.40
2019-04-07T08:35:47.991Z,7.40
2019-04-07T08:38:20.763Z,7.65
2019-04-07T08:40:46.913Z,7.30
2019-04-07T08:43:19.629Z,6.47
2019-04-07T08:45:46.048Z,6.97
2019-04-07T08:48:18.251Z,8.25
2019-04-07T08:50:45.253Z,7.62
2019-04-07T08:53:14.106Z,7.90
2019-04-07T08:55:44.371Z,7.20
2019-04-07T08:58:23.619Z,11.45
2019-04-07T09:00:50.955Z,8.20
2019-04-07T09:03:18.412Z,14.68
2019-04-07T09:05:47.854Z,7.33
2019-04-07T09:08:17.235Z,7.42
2019-04-07T09:11:04.674Z,7.42
2019-04-07T09:13:34.231Z,7.72
2019-04-07T09:16:04.815Z,7.58
2019-04-07T09:18:57.809Z,8.80
2019-04-07T09:21:40.897Z,9.03
2019-04-07T09:24:29.732Z,9.03
2019-04-07T09:27:09.090Z,10.28
2019-04-07T09:29:45.299Z,10.32
2019-04-07T09:32:22.540Z,9.10
2019-04-07T09:35:07.204Z,9.70
2019-04-07T09:37:36.743Z,10.88
2019-04-07T09:40:25.737Z,10.13
2019-04-07T09:43:00.849Z,11.43
2019-04-07T09:45:52.920Z,11.65
2019-04-07T09:48:24.031Z,12.30
2019-04-07T09:51:07.371Z,12.23
2019-04-07T09:53:48.805Z,13.18
2019-04-07T09:56:37.518Z,13.13
2019-04-07T09:59:07.902Z,16.17
2019-04-07T10:01:38.912Z,14.87
2019-04-07T10:04:25.639Z,24.20
2019-04-07T10:07:02.668Z,15.35
2019-04-07T10:09:49.213Z,27.75
2019-04-07T10:12:19.693Z,16.48
2019-04-07T10:14:56.325Z,15.58
2019-04-07T10:17:26.638Z,16.67
2019-04-07T10:20:14.343Z,15.45
2019-04-07T10:22:57.435Z,19.10
2019-04-07T10:25:30.507Z,18.90
2019-04-07T10:28:00.943Z,18.52
2019-04-07T10:30:39.940Z,19.20
2019-04-07T10:33:10.064Z,20.50
2019-04-07T10:35:56.849Z,22.22
2019-04-07T10:38:26.994Z,22.40
2019-04-07T10:41:14.024Z,22.93
2019-04-07T10:43:45.153Z,23.87
2019-04-07T10:46:15.774Z,24.67
2019-04-07T10:48:51.724Z,25.62
2019-04-07T10:51:27.441Z,24.82
2019-04-07T10:54:03.750Z,26.77
2019-04-07T10:56:34.445Z,26.27
2019-04-07T10:59:07.445Z,23.57
2019-04-07T11:01:46.413Z,23.98
2019-04-07T11:04:25.537Z,21.77
2019-04-07T11:06:58.671Z,20.68
2019-04-07T11:09:40.636Z,21.45
2019-04-07T11:12:21.029Z,22.55
2019-04-07T11:14:57.810Z,22.10
2019-04-07T11:17:27.998Z,24.52
2019-04-07T11:20:01.508Z,24.40
2019-04-07T11:22:47.865Z,26.37
2019-04-07T11:25:24.151Z,25.27
2019-04-07T11:28:11.136Z,25.70
2019-04-07T11:30:42.024Z,27.00
2019-04-07T11:33:24.510Z,25.25
2019-04-07T11:36:04.082Z,23.10
2019-04-07T11:38:34.376Z,21.12
2019-04-07T11:41:11.207Z,21.62
2019-04-07T11:43:44.465Z,22.60
2019-04-07T11:46:17.539Z,23.75
2019-04-07T11:48:47.576Z,25.90
2019-04-07T11:51:18.402Z,23.62
2019-04-07T11:54:05.195Z,25.30
2019-04-07T11:56:47.275Z,25.85
2019-04-07T11:59:20.448Z,25.43
2019-04-07T12:01:53.084Z,25.12
2019-04-07T12:04:41.710Z,26.73
2019-04-07T12:07:19.103Z,26.95
2019-04-07T12:09:49.311Z,25.50
2019-04-07T12:12:31.781Z,24.87
2019-04-07T12:15:22.074Z,24.30
2019-04-07T12:17:53.440Z,25.68
2019-04-07T12:20:25.685Z,24.55
2019-04-07T12:22:58.327Z,24.40
2019-04-07T12:25:45.095Z,26.50
2019-04-07T12:28:19.145Z,23.47
2019-04-07T12:31:04.276Z,24.43
2019-04-07T12:33:37.478Z,26.17
2019-04-07T12:36:12.958Z,26.75
2019-04-07T12:38:48.757Z,27.35
2019-04-07T12:41:23.249Z,25.10
2019-04-07T12:43:54.014Z,23.85
2019-04-07T12:46:26.917Z,23.47
2019-04-07T12:49:09.690Z,23.87
2019-04-07T12:51:43.011Z,22.95
2019-04-07T12:54:16.752Z,23.60
2019-04-07T12:56:58.576Z,23.90
2019-04-07T12:59:31.570Z,24.02
2019-04-07T13:02:10.261Z,23.85
2019-04-07T13:04:52.770Z,23.42
2019-04-07T13:07:40.292Z,23.02
2019-04-07T13:10:14.226Z,22.58
2019-04-07T13:12:47.863Z,20.95
2019-04-07T13:15:34.389Z,21.75
2019-04-07T13:18:13.512Z,22.95
2019-04-07T13:20:53.181Z,21.55
2019-04-07T13:23:26.600Z,19.70
2019-04-07T13:26:16.466Z,17.10
2019-04-07T13:28:50.042Z,17.62
2019-04-07T13:31:21.198Z,18.02
2019-04-07T13:33:52.212Z,18.87
2019-04-07T13:36:28.145Z,20.02
2019-04-07T13:38:58.836Z,16.95
2019-04-07T13:41:38.593Z,17.77
2019-04-07T13:44:19.478Z,15.98
2019-04-07T13:47:07.307Z,17.10
2019-04-07T13:49:38.136Z,14.43
2019-04-07T13:52:23.178Z,13.60
2019-04-07T13:54:59.161Z,14.25
2019-04-07T13:57:38.146Z,14.35
2019-04-07T14:00:20.429Z,14.07
2019-04-07T14:02:50.554Z,13.35
2019-04-07T14:05:33.159Z,12.37
2019-04-07T14:08:07.099Z,12.60
2019-04-07T14:10:40.523Z,11.30
2019-04-07T14:13:10.573Z,11.00
2019-04-07T14:15:46.511Z,11.53
2019-04-07T14:18:33.449Z,13.45
2019-04-07T14:21:13.652Z,12.05
2019-04-07T14:23:52.101Z,11.48
2019-04-07T14:26:21.222Z,11.80
2019-04-07T14:28:54.152Z,11.88
2019-04-07T14:31:26.925Z,11.65
2019-04-07T14:33:57.484Z,10.82
2019-04-07T14:36:43.950Z,12.05
2019-04-07T14:39:31.410Z,12.60
2019-04-07T14:42:08.764Z,12.85
2019-04-07T14:44:51.149Z,11.65
2019-04-07T14:47:27.263Z,11.80
2019-04-07T14:50:06.878Z,11.10
2019-04-07T14:52:52.027Z,11.08
2019-04-07T14:55:24.852Z,11.90
2019-04-07T14:57:55.093Z,12.65
2019-04-07T15:00:29.121Z,13.15
2019-04-07T15:02:58.016Z,14.20
2019-04-07T15:05:28.789Z,14.70
2019-04-07T15:08:00.057Z,14.33
2019-04-07T15:10:30.787Z,14.73
2019-04-07T15:13:01.783Z,14.75
2019-04-07T15:15:30.401Z,14.50
2019-04-07T15:17:59.853Z,14.98
2019-04-07T15:20:28.559Z,16.20
2019-04-07T15:22:59.251Z,17.17
2019-04-07T15:25:29.637Z,16.90
2019-04-07T15:28:00.057Z,15.90
2019-04-07T15:30:28.424Z,15.78
2019-04-07T15:33:00.233Z,15.50
2019-04-07T15:35:27.582Z,15.88
2019-04-07T15:37:57.012Z,16.80
2019-04-07T15:40:25.657Z,15.98
2019-04-07T15:42:54.488Z,17.55
2019-04-07T15:45:23.499Z,16.77
2019-04-07T15:47:53.881Z,17.52
2019-04-07T15:50:22.678Z,17.02
2019-04-07T15:52:51.347Z,17.98
2019-04-07T15:55:20.869Z,17.00
2019-04-07T15:57:53.439Z,15.03
2019-04-07T16:00:21.611Z,15.98
2019-04-07T16:02:52.182Z,16.00
2019-04-07T16:05:21.574Z,15.32
2019-04-07T16:07:53.163Z,15.72
2019-04-07T16:10:21.958Z,16.27
2019-04-07T16:12:52.821Z,15.30
2019-04-07T16:15:21.198Z,15.80
2019-04-07T16:17:50.276Z,16.87
2019-04-07T16:20:24.530Z,16.07
2019-04-07T16:22:51.422Z,15.35
2019-04-07T16:25:19.589Z,15.00
2019-04-07T16:27:48.792Z,14.98
2019-04-07T16:30:19.452Z,14.10
2019-04-07T16:32:48.802Z,15.15
2019-04-07T16:35:17.194Z,15.30
2019-04-07T16:37:45.817Z,15.85
2019-04-07T16:40:14.326Z,15.25
2019-04-07T16:42:53.832Z,16.20
2019-04-07T16:45:16.507Z,15.00
2019-04-07T16:47:43.692Z,14.78
2019-04-07T16:50:12.227Z,14.75
2019-04-07T16:52:40.587Z,14.53
2019-04-07T16:55:28.570Z,14.73
2019-04-07T16:57:59.416Z,15.00
2019-04-07T17:00:28.000Z,13.58
2019-04-07T17:02:56.916Z,14.78
2019-04-07T17:05:26.052Z,15.80
2019-04-07T17:07:55.977Z,14.75
2019-04-07T17:10:29.603Z,14.90
2019-04-07T17:12:55.019Z,13.85
2019-04-07T17:15:23.971Z,15.30
2019-04-07T17:17:53.390Z,14.15
2019-04-07T17:20:25.751Z,14.53
2019-04-07T17:22:52.995Z,13.90
2019-04-07T17:25:22.806Z,15.23
2019-04-07T17:27:51.939Z,14.33
2019-04-07T17:30:24.369Z,15.05
2019-04-07T17:32:52.168Z,14.47
2019-04-07T17:35:21.276Z,15.00
2019-04-07T17:37:50.101Z,15.45
2019-04-07T17:40:20.413Z,14.65
2019-04-07T17:42:52.773Z,14.93
2019-04-07T17:45:37.481Z,15.15
2019-04-07T17:48:17.119Z,52.73
2019-04-07T17:50:53.106Z,57.98
2019-04-07T17:53:23.398Z,31.33
2019-04-07T17:56:10.858Z,23.87
2019-04-07T17:58:44.340Z,18.02
2019-04-07T18:01:31.310Z,15.60
2019-04-07T18:04:13.982Z,15.10
2019-04-07T18:06:51.294Z,14.68
2019-04-07T18:09:24.816Z,14.60
2019-04-07T18:12:00.900Z,16.17
2019-04-07T18:14:45.861Z,14.63
2019-04-07T18:17:22.621Z,14.30
2019-04-07T18:20:01.785Z,14.95
2019-04-07T18:22:31.196Z,15.53
2019-04-07T18:25:10.565Z,19.85
2019-04-07T18:27:41.833Z,78.87
2019-04-07T18:30:31.516Z,17.50
2019-04-07T18:33:20.276Z,15.98
2019-04-07T18:35:54.697Z,16.32
2019-04-07T18:38:34.247Z,15.50
2019-04-07T18:41:10.614Z,15.95
2019-04-07T18:44:03.704Z,16.07
2019-04-07T18:46:50.183Z,16.27
2019-04-07T18:49:22.088Z,14.87
2019-04-07T18:51:58.367Z,15.78
2019-04-07T18:54:45.019Z,15.45
2019-04-07T18:57:15.313Z,16.37
2019-04-07T18:59:50.315Z,16.80
2019-04-07T19:02:23.660Z,15.38
2019-04-07T19:04:58.957Z,15.95
2019-04-07T19:07:31.130Z,15.93
2019-04-07T19:10:10.388Z,16.80
2019-04-07T19:12:41.298Z,16.87
2019-04-07T19:15:29.890Z,16.67
2019-04-07T19:18:16.207Z,17.15
2019-04-07T19:21:01.116Z,77.92
2019-04-07T19:23:40.953Z,38.05
2019-04-07T19:26:27.829Z,31.37
2019-04-07T19:29:10.485Z,18.52
2019-04-07T19:31:51.100Z,18.90
2019-04-07T19:34:28.417Z,17.57
2019-04-07T19:36:56.979Z,18.65
2019-04-07T19:39:43.788Z,17.40
2019-04-07T19:42:14.436Z,18.32
2019-04-07T19:44:53.759Z,18.12
2019-04-07T19:47:39.525Z,19.15
2019-04-07T19:50:12.193Z,18.60
2019-04-07T19:52:45.162Z,18.70
2019-04-07T19:55:26.351Z,18.75
2019-04-07T19:58:01.927Z,21.52
2019-04-07T20:00:30.796Z,22.07
2019-04-07T20:03:17.927Z,21.02
2019-04-07T20:05:50.149Z,20.75
2019-04-07T20:08:20.669Z,19.50
2019-04-07T20:10:52.289Z,19.50
2019-04-07T20:13:34.450Z,17.55
2019-04-07T20:16:04.621Z,16.20
2019-04-07T20:18:37.578Z,18.50
2019-04-07T20:21:34.841Z,18.23
2019-04-07T20:24:10.740Z,18.20
2019-04-07T20:26:50.744Z,17.65
2019-04-07T20:29:19.362Z,17.85
2019-04-07T20:32:07.560Z,18.35
2019-04-07T20:34:43.830Z,17.73
2019-04-07T20:37:30.175Z,17.98
2019-04-07T20:40:12.533Z,18.57
2019-04-07T20:42:46.390Z,18.42
2019-04-07T20:45:20.029Z,17.80
2019-04-07T20:47:49.229Z,17.40
2019-04-07T20:50:19.588Z,15.98
2019-04-07T20:53:10.080Z,16.42
2019-04-07T20:55:34.447Z,17.10
2019-04-07T20:58:18.770Z,16.67
2019-04-07T21:00:55.997Z,16.70
2019-04-07T21:03:29.054Z,15.43
2019-04-07T21:06:11.172Z,15.10
2019-04-07T21:08:59.513Z,15.68
2019-04-07T21:11:37.645Z,15.93
2019-04-07T21:14:23.967Z,14.80
2019-04-07T21:16:57.868Z,15.30
2019-04-07T21:19:42.253Z,15.30
2019-04-07T21:22:14.278Z,16.57
2019-04-07T21:24:44.269Z,16.50
2019-04-07T21:27:14.402Z,16.77
2019-04-07T21:29:45.933Z,17.50
2019-04-07T21:32:18.351Z,17.48
2019-04-07T21:34:51.476Z,16.15
2019-04-07T21:37:36.490Z,16.93
2019-04-07T21:40:13.218Z,16.07
2019-04-07T21:43:02.663Z,17.35
2019-04-07T21:45:40.941Z,17.65
2019-04-07T21:48:20.627Z,17.15
2019-04-07T21:50:53.702Z,17.80
2019-04-07T21:53:26.559Z,17.48
2019-04-07T21:55:58.406Z,17.62
2019-04-07T21:58:46.024Z,18.55
2019-04-07T22:01:16.671Z,18.80
2019-04-07T22:03:58.938Z,16.90
2019-04-07T22:06:44.497Z,16.95
2019-04-07T22:09:16.486Z,15.93
2019-04-07T22:11:45.838Z,16.30
2019-04-07T22:14:14.613Z,17.95
2019-04-07T22:16:43.243Z,16.17
2019-04-07T22:19:13.975Z,17.17
2019-04-07T22:21:42.414Z,16.45
2019-04-07T22:24:11.097Z,17.67
2019-04-07T22:26:40.603Z,16.97
2019-04-07T22:29:09.773Z,15.95
2019-04-07T22:31:46.707Z,16.40
2019-04-07T22:34:16.548Z,16.93
2019-04-07T22:36:47.510Z,16.65
2019-04-07T22:39:15.088Z,16.93
2019-04-07T22:41:46.171Z,16.12
2019-04-07T22:44:15.534Z,15.15
2019-04-07T22:46:48.106Z,14.50
2019-04-07T22:49:14.221Z,14.43
2019-04-07T22:51:44.517Z,13.80
2019-04-07T22:54:14.058Z,13.60
2019-04-07T22:56:42.838Z,13.72
2019-04-07T22:59:11.896Z,14.18
2019-04-07T23:01:41.434Z,13.62
2019-04-07T23:04:09.783Z,13.78
2019-04-07T23:06:39.215Z,13.05
2019-04-07T23:09:07.886Z,12.78
2019-04-07T23:11:36.331Z,12.95
2019-04-07T23:14:04.826Z,13.28
2019-04-07T23:16:33.249Z,13.32
2019-04-07T23:19:02.587Z,12.63
2019-04-07T23:21:31.968Z,13.05
2019-04-07T23:24:01.235Z,13.48
2019-04-07T23:26:29.967Z,13.80
2019-04-07T23:28:58.682Z,13.95
2019-04-07T23:31:28.233Z,14.13
2019-04-07T23:33:56.611Z,14.58
2019-04-07T23:36:25.150Z,13.43
2019-04-07T23:38:53.881Z,14.10
2019-04-07T23:41:22.739Z,14.38
2019-04-07T23:43:51.410Z,14.60
2019-04-07T23:46:24.706Z,14.00
2019-04-07T23:48:49.997Z,14.98
2019-04-07T23:51:18.572Z,14.18
2019-04-07T23:54:07.668Z,13.45
2019-04-07T23:56:37.437Z,13.85
2019-04-07T23:59:06.243Z,14.90
